sensor_id;sensor_type;location;lat;lon;timestamp;pressure;altitude;pressure_sealevel;temperature;humidity
55538;BME280;41383;51.418;7.286;2022-10-17T00:01:02;100036.06;;;15.51;100.00
55538;BME280;41383;51.418;7.286;2022-10-17T00:03:28;100038.81;;;15.51;100.00
55538;BME280;41383;51.418;7.286;2022-10-17T00:05:53;100037.69;;;15.52;100.00
55538;BME280;41383;51.418;7.286;2022-10-17T00:08:19;100034.59;;;15.59;100.00
55538;BME280;41383;51.418;7.286;2022-10-17T00:10:44;100034.59;;;15.59;100.00
55538;BME280;41383;51.418;7.286;2022-10-17T00:13:10;100033.78;;;15.59;100.00
55538;BME280;41383;51.418;7.286;2022-10-17T00:15:36;100040.09;;;15.59;100.00
55538;BME280;41383;51.418;7.286;2022-10-17T00:18:02;100041.97;;;15.64;100.00
55538;BME280;41383;51.418;7.286;2022-10-17T00:20:27;100040.31;;;15.63;100.00
55538;BME280;41383;51.418;7.286;2022-10-17T00:22:55;100039.50;;;15.62;100.00
55538;BME280;41383;51.418;7.286;2022-10-17T00:25:20;100034.84;;;15.63;100.00
55538;BME280;41383;51.418;7.286;2022-10-17T00:27:45;100025.75;;;15.62;100.00
55538;BME280;41383;51.418;7.286;2022-10-17T00:30:12;100027.41;;;15.63;100.00
55538;BME280;41383;51.418;7.286;2022-10-17T00:32:38;100029.03;;;15.64;100.00
55538;BME280;41383;51.418;7.286;2022-10-17T00:35:04;100027.13;;;15.65;100.00
55538;BME280;41383;51.418;7.286;2022-10-17T00:37:31;100022.66;;;15.69;100.00
55538;BME280;41383;51.418;7.286;2022-10-17T00:39:56;100014.94;;;15.71;100.00
55538;BME280;41383;51.418;7.286;2022-10-17T00:42:22;100027.56;;;15.72;100.00
55538;BME280;41383;51.418;7.286;2022-10-17T00:47:16;100022.59;;;15.74;100.00
55538;BME280;41383;51.418;7.286;2022-10-17T00:49:43;100026.47;;;15.73;100.00
55538;BME280;41383;51.418;7.286;2022-10-17T00:52:24;100023.13;;;15.76;100.00
55538;BME280;41383;51.418;7.286;2022-10-17T00:54:55;100016.53;;;15.78;100.00
55538;BME280;41383;51.418;7.286;2022-10-17T00:57:22;100014.59;;;15.78;100.00
55538;BME280;41383;51.418;7.286;2022-10-17T00:59:51;100018.97;;;15.79;100.00
55538;BME280;41383;51.418;7.286;2022-10-17T01:02:19;100024.78;;;15.78;100.00
55538;BME280;41383;51.418;7.286;2022-10-17T01:04:47;100017.63;;;15.76;100.00
55538;BME280;41383;51.418;7.286;2022-10-17T01:07:14;100015.41;;;15.79;100.00
55538;BME280;41383;51.418;7.286;2022-10-17T01:09:40;100010.44;;;15.81;100.00
55538;BME280;41383;51.418;7.286;2022-10-17T01:12:11;100010.94;;;15.83;100.00
55538;BME280;41383;51.418;7.286;2022-10-17T01:26:04;100006.81;;;15.85;99.78
55538;BME280;41383;51.418;7.286;2022-10-17T01:29:04;100010.69;;;15.84;100.00
55538;BME280;41383;51.418;7.286;2022-10-17T01:31:54;100007.34;;;15.87;99.56
55538;BME280;41383;51.418;7.286;2022-10-17T01:34:30;100016.41;;;15.88;99.42
55538;BME280;41383;51.418;7.286;2022-10-17T01:37:07;100019.16;;;15.88;99.36
55538;BME280;41383;51.418;7.286;2022-10-17T01:39:43;100009.78;;;15.89;99.45
55538;BME280;41383;51.418;7.286;2022-10-17T01:44:52;100002.66;;;15.88;99.07
55538;BME280;41383;51.418;7.286;2022-10-17T01:47:20;100000.44;;;15.90;99.00
55538;BME280;41383;51.418;7.286;2022-10-17T01:49:49;99994.34;;;15.93;98.74
55538;BME280;41383;51.418;7.286;2022-10-17T01:52:23;100003.41;;;15.94;98.68
55538;BME280;41383;51.418;7.286;2022-10-17T01:54:53;99998.22;;;15.92;98.82
55538;BME280;41383;51.418;7.286;2022-10-17T01:57:27;99995.47;;;15.92;98.57
55538;BME280;41383;51.418;7.286;2022-10-17T01:59:53;99993.50;;;15.93;98.53
55538;BME280;41383;51.418;7.286;2022-10-17T02:02:20;99993.28;;;15.89;98.45
55538;BME280;41383;51.418;7.286;2022-10-17T02:04:48;99989.56;;;15.99;98.25
55538;BME280;41383;51.418;7.286;2022-10-17T02:07:15;99986.81;;;15.99;97.85
55538;BME280;41383;51.418;7.286;2022-10-17T02:09:40;99986.31;;;15.97;98.22
55538;BME280;41383;51.418;7.286;2022-10-17T02:15:27;99982.75;;;15.96;97.88
55538;BME280;41383;51.418;7.286;2022-10-17T02:20:59;99980.28;;;15.95;97.86
55538;BME280;41383;51.418;7.286;2022-10-17T02:23:36;99980.53;;;15.98;97.60
55538;BME280;41383;51.418;7.286;2022-10-17T02:26:09;99981.06;;;16.01;97.37
55538;BME280;41383;51.418;7.286;2022-10-17T02:28:51;99975.81;;;16.04;96.89
55538;BME280;41383;51.418;7.286;2022-10-17T02:31:27;99970.59;;;16.03;96.85
55538;BME280;41383;51.418;7.286;2022-10-17T02:34:02;99982.72;;;16.02;96.98
55538;BME280;41383;51.418;7.286;2022-10-17T02:36:33;99985.47;;;16.02;96.79
55538;BME280;41383;51.418;7.286;2022-10-17T02:39:02;99974.97;;;16.04;96.60
55538;BME280;41383;51.418;7.286;2022-10-17T02:41:29;99975.81;;;16.04;96.69
55538;BME280;41383;51.418;7.286;2022-10-17T02:43:55;99969.19;;;16.05;96.57
55538;BME280;41383;51.418;7.286;2022-10-17T02:46:23;99961.75;;;16.06;96.56
55538;BME280;41383;51.418;7.286;2022-10-17T02:49:07;99965.31;;;16.06;96.33
55538;BME280;41383;51.418;7.286;2022-10-17T02:51:46;99973.88;;;16.05;96.41
55538;BME280;41383;51.418;7.286;2022-10-17T02:57:02;99974.69;;;16.05;96.26
55538;BME280;41383;51.418;7.286;2022-10-17T02:59:33;99978.25;;;16.06;96.01
55538;BME280;41383;51.418;7.286;2022-10-17T03:02:04;99982.13;;;16.05;96.31
55538;BME280;41383;51.418;7.286;2022-10-17T03:04:30;99974.09;;;16.08;95.97
55538;BME280;41383;51.418;7.286;2022-10-17T03:06:56;99974.91;;;16.09;95.56
55538;BME280;41383;51.418;7.286;2022-10-17T03:09:21;99974.38;;;16.07;95.80
55538;BME280;41383;51.418;7.286;2022-10-17T03:11:46;99982.13;;;16.05;95.73
55538;BME280;41383;51.418;7.286;2022-10-17T03:14:12;99986.50;;;16.06;95.83
55538;BME280;41383;51.418;7.286;2022-10-17T03:16:37;99989.25;;;16.06;95.50
55538;BME280;41383;51.418;7.286;2022-10-17T03:19:02;99968.66;;;16.03;95.68
55538;BME280;41383;51.418;7.286;2022-10-17T03:21:27;99965.91;;;16.03;95.51
55538;BME280;41383;51.418;7.286;2022-10-17T03:23:53;99970.59;;;16.03;95.52
55538;BME280;41383;51.418;7.286;2022-10-17T03:26:18;99975.50;;;16.06;95.14
55538;BME280;41383;51.418;7.286;2022-10-17T03:28:43;99987.09;;;16.03;95.36
55538;BME280;41383;51.418;7.286;2022-10-17T03:31:11;99988.72;;;16.04;94.99
55538;BME280;41383;51.418;7.286;2022-10-17T03:33:36;99992.06;;;16.01;95.51
55538;BME280;41383;51.418;7.286;2022-10-17T03:36:10;99982.16;;;15.99;95.42
55538;BME280;41383;51.418;7.286;2022-10-17T03:38:36;99978.84;;;16.03;95.31
55538;BME280;41383;51.418;7.286;2022-10-17T03:41:02;99992.59;;;16.03;95.18
55538;BME280;41383;51.418;7.286;2022-10-17T03:43:28;99976.09;;;16.03;95.07
55538;BME280;41383;51.418;7.286;2022-10-17T03:45:53;99985.97;;;16.04;94.95
55538;BME280;41383;51.418;7.286;2022-10-17T03:48:20;99985.91;;;16.09;94.55
55538;BME280;41383;51.418;7.286;2022-10-17T03:50:45;99989.78;;;16.08;94.49
55538;BME280;41383;51.418;7.286;2022-10-17T03:53:10;99999.13;;;16.07;94.80
55538;BME280;41383;51.418;7.286;2022-10-17T03:55:36;100006.06;;;16.04;94.71
55538;BME280;41383;51.418;7.286;2022-10-17T03:58:01;99994.53;;;16.02;94.80
55538;BME280;41383;51.418;7.286;2022-10-17T04:00:26;99996.44;;;16.02;95.29
55538;BME280;41383;51.418;7.286;2022-10-17T04:02:52;99996.66;;;16.05;94.51
55538;BME280;41383;51.418;7.286;2022-10-17T04:05:17;100000.56;;;16.04;94.76
55538;BME280;41383;51.418;7.286;2022-10-17T04:07:43;99998.63;;;16.05;94.39
55538;BME280;41383;51.418;7.286;2022-10-17T04:10:08;100005.75;;;16.06;94.68
55538;BME280;41383;51.418;7.286;2022-10-17T04:12:33;100007.97;;;16.04;94.84
55538;BME280;41383;51.418;7.286;2022-10-17T04:14:59;100008.28;;;16.02;94.48
55538;BME280;41383;51.418;7.286;2022-10-17T04:17:24;100010.94;;;16.07;94.30
55538;BME280;41383;51.418;7.286;2022-10-17T04:19:49;100011.78;;;16.08;93.95
55538;BME280;41383;51.418;7.286;2022-10-17T04:22:14;100019.50;;;16.06;94.01
55538;BME280;41383;51.418;7.286;2022-10-17T04:24:40;100008.81;;;16.04;94.18
55538;BME280;41383;51.418;7.286;2022-10-17T04:27:05;100016.81;;;16.01;94.20
55538;BME280;41383;51.418;7.286;2022-10-17T04:29:30;100005.81;;;16.01;94.34
55538;BME280;41383;51.418;7.286;2022-10-17T04:31:55;100007.44;;;16.02;94.08
55538;BME280;41383;51.418;7.286;2022-10-17T04:34:21;100012.38;;;16.05;94.06
55538;BME280;41383;51.418;7.286;2022-10-17T04:36:46;100004.63;;;16.07;93.66
55538;BME280;41383;51.418;7.286;2022-10-17T04:39:11;100003.00;;;16.06;93.89
55538;BME280;41383;51.418;7.286;2022-10-17T04:41:37;100007.66;;;16.05;93.87
55538;BME280;41383;51.418;7.286;2022-10-17T04:44:02;100020.63;;;16.05;93.86
55538;BME280;41383;51.418;7.286;2022-10-17T04:46:27;100020.09;;;16.03;94.07
55538;BME280;41383;51.418;7.286;2022-10-17T04:48:53;100021.94;;;16.07;93.29
55538;BME280;41383;51.418;7.286;2022-10-17T04:51:18;100017.28;;;16.08;93.45
55538;BME280;41383;51.418;7.286;2022-10-17T04:53:44;100011.78;;;16.08;93.48
55538;BME280;41383;51.418;7.286;2022-10-17T04:56:20;100007.91;;;16.09;93.24
55538;BME280;41383;51.418;7.286;2022-10-17T04:58:46;100009.84;;;16.08;93.08
55538;BME280;41383;51.418;7.286;2022-10-17T05:01:16;100021.59;;;16.14;92.94
55538;BME280;41383;51.418;7.286;2022-10-17T05:03:42;100016.53;;;16.21;92.25
55538;BME280;41383;51.418;7.286;2022-10-17T05:06:10;100016.09;;;16.14;92.54
55538;BME280;41383;51.418;7.286;2022-10-17T05:08:36;100020.97;;;16.17;92.30
55538;BME280;41383;51.418;7.286;2022-10-17T05:11:03;100013.84;;;16.16;92.38
55538;BME280;41383;51.418;7.286;2022-10-17T05:13:28;100006.72;;;16.15;92.44
55538;BME280;41383;51.418;7.286;2022-10-17T05:16:00;100014.97;;;16.15;92.17
55538;BME280;41383;51.418;7.286;2022-10-17T05:18:26;100024.88;;;16.16;92.19
55538;BME280;41383;51.418;7.286;2022-10-17T05:20:52;100025.06;;;16.20;91.62
55538;BME280;41383;51.418;7.286;2022-10-17T05:23:18;100025.06;;;16.20;91.76
55538;BME280;41383;51.418;7.286;2022-10-17T05:25:43;100036.97;;;16.15;92.02
55538;BME280;41383;51.418;7.286;2022-10-17T05:28:08;100032.22;;;16.21;91.32
55538;BME280;41383;51.418;7.286;2022-10-17T05:30:34;100021.81;;;16.18;91.76
55538;BME280;41383;51.418;7.286;2022-10-17T05:33:00;100022.63;;;16.18;91.74
55538;BME280;41383;51.418;7.286;2022-10-17T05:35:26;100027.31;;;16.18;91.81
55538;BME280;41383;51.418;7.286;2022-10-17T05:37:51;100019.88;;;16.18;91.92
55538;BME280;41383;51.418;7.286;2022-10-17T05:40:17;100027.31;;;16.18;91.78
55538;BME280;41383;51.418;7.286;2022-10-17T05:42:48;100033.41;;;16.15;91.78
55538;BME280;41383;51.418;7.286;2022-10-17T05:45:14;100037.72;;;16.21;91.45
55538;BME280;41383;51.418;7.286;2022-10-17T05:47:40;100043.81;;;16.18;91.39
55538;BME280;41383;51.418;7.286;2022-10-17T05:50:06;100052.59;;;16.20;91.17
55538;BME280;41383;51.418;7.286;2022-10-17T05:52:32;100037.44;;;16.22;91.29
55538;BME280;41383;51.418;7.286;2022-10-17T05:54:58;100049.53;;;16.21;91.39
55538;BME280;41383;51.418;7.286;2022-10-17T05:57:24;100056.91;;;16.26;90.72
55538;BME280;41383;51.418;7.286;2022-10-17T05:59:49;100062.72;;;16.25;90.85
55538;BME280;41383;51.418;7.286;2022-10-17T06:02:15;100056.06;;;16.26;90.81
55538;BME280;41383;51.418;7.286;2022-10-17T06:04:40;100063.22;;;16.27;90.89
55538;BME280;41383;51.418;7.286;2022-10-17T06:07:09;100053.63;;;16.24;90.72
55538;BME280;41383;51.418;7.286;2022-10-17T06:09:35;100047.78;;;16.31;90.34
55538;BME280;41383;51.418;7.286;2022-10-17T06:12:00;100053.84;;;16.28;90.43
55538;BME280;41383;51.418;7.286;2022-10-17T06:14:26;100052.22;;;16.27;90.56
55538;BME280;41383;51.418;7.286;2022-10-17T06:16:51;100040.03;;;16.33;89.83
55538;BME280;41383;51.418;7.286;2022-10-17T06:19:16;100057.66;;;16.32;89.86
55538;BME280;41383;51.418;7.286;2022-10-17T06:21:41;100062.56;;;16.35;89.78
55538;BME280;41383;51.418;7.286;2022-10-17T06:24:07;100045.97;;;16.40;89.29
55538;BME280;41383;51.418;7.286;2022-10-17T06:26:32;100055.94;;;16.36;89.80
55538;BME280;41383;51.418;7.286;2022-10-17T06:28:57;100055.13;;;16.36;89.75
55538;BME280;41383;51.418;7.286;2022-10-17T06:31:23;100060.25;;;16.42;89.05
55538;BME280;41383;51.418;7.286;2022-10-17T06:33:48;100065.16;;;16.45;89.04
55538;BME280;41383;51.418;7.286;2022-10-17T06:36:13;100072.81;;;16.49;88.85
55538;BME280;41383;51.418;7.286;2022-10-17T06:38:39;100083.53;;;16.50;88.64
55538;BME280;41383;51.418;7.286;2022-10-17T06:41:14;100103.31;;;16.52;88.57
55538;BME280;41383;51.418;7.286;2022-10-17T06:43:41;100112.09;;;16.54;88.28
55538;BME280;41383;51.418;7.286;2022-10-17T06:46:09;100110.75;;;16.52;88.64
55538;BME280;41383;51.418;7.286;2022-10-17T06:48:35;100121.69;;;16.57;88.65
55538;BME280;41383;51.418;7.286;2022-10-17T06:51:00;100133.59;;;16.52;88.65
55538;BME280;41383;51.418;7.286;2022-10-17T06:53:32;100132.75;;;16.52;88.85
55538;BME280;41383;51.418;7.286;2022-10-17T06:55:59;100141.00;;;16.52;88.91
55538;BME280;41383;51.418;7.286;2022-10-17T06:58:33;100138.78;;;16.54;89.12
55538;BME280;41383;51.418;7.286;2022-10-17T07:01:00;100143.72;;;16.57;88.86
55538;BME280;41383;51.418;7.286;2022-10-17T07:03:26;100140.66;;;16.59;88.72
55538;BME280;41383;51.418;7.286;2022-10-17T07:05:52;100151.16;;;16.56;89.00
55538;BME280;41383;51.418;7.286;2022-10-17T07:08:18;100145.72;;;16.51;89.46
55538;BME280;41383;51.418;7.286;2022-10-17T07:10:43;100153.06;;;16.56;88.94
55538;BME280;41383;51.418;7.286;2022-10-17T07:13:09;100148.09;;;16.58;88.90
55538;BME280;41383;51.418;7.286;2022-10-17T07:15:35;100153.53;;;16.63;89.46
55538;BME280;41383;51.418;7.286;2022-10-17T07:18:01;100159.91;;;16.59;89.22
55538;BME280;41383;51.418;7.286;2022-10-17T07:20:26;100152.78;;;16.57;89.13
55538;BME280;41383;51.418;7.286;2022-10-17T07:22:51;100157.16;;;16.59;89.36
55538;BME280;41383;51.418;7.286;2022-10-17T07:25:16;100160.53;;;16.55;89.58
55538;BME280;41383;51.418;7.286;2022-10-17T07:27:42;100158.00;;;16.59;89.67
55538;BME280;41383;51.418;7.286;2022-10-17T07:30:07;100162.31;;;16.65;88.66
55538;BME280;41383;51.418;7.286;2022-10-17T07:32:33;100161.72;;;16.68;88.86
55538;BME280;41383;51.418;7.286;2022-10-17T07:34:58;100154.97;;;16.80;87.77
55538;BME280;41383;51.418;7.286;2022-10-17T07:37:23;100140.44;;;16.94;87.47
55538;BME280;41383;51.418;7.286;2022-10-17T07:39:49;100155.03;;;16.94;87.38
55538;BME280;41383;51.418;7.286;2022-10-17T07:42:14;100151.06;;;17.00;86.59
55538;BME280;41383;51.418;7.286;2022-10-17T07:44:39;100146.16;;;16.97;87.13
55538;BME280;41383;51.418;7.286;2022-10-17T07:47:05;100156.19;;;17.07;86.15
55538;BME280;41383;51.418;7.286;2022-10-17T07:49:30;100155.78;;;17.00;86.75
55538;BME280;41383;51.418;7.286;2022-10-17T07:51:55;100148.56;;;17.04;86.31
55538;BME280;41383;51.418;7.286;2022-10-17T07:54:21;100148.03;;;17.02;86.30
55538;BME280;41383;51.418;7.286;2022-10-17T07:56:46;100154.94;;;16.99;86.56
55538;BME280;41383;51.418;7.286;2022-10-17T07:59:16;100159.03;;;17.02;86.38
55538;BME280;41383;51.418;7.286;2022-10-17T08:01:41;100156.81;;;17.04;85.51
55538;BME280;41383;51.418;7.286;2022-10-17T08:04:06;100158.00;;;16.98;86.33
55538;BME280;41383;51.418;7.286;2022-10-17T08:06:31;100173.91;;;17.01;85.82
55538;BME280;41383;51.418;7.286;2022-10-17T08:08:57;100161.50;;;17.03;85.58
55538;BME280;41383;51.418;7.286;2022-10-17T08:11:22;100156.50;;;17.06;86.11
55538;BME280;41383;51.418;7.286;2022-10-17T08:13:49;100166.28;;;17.17;85.12
55538;BME280;41383;51.418;7.286;2022-10-17T08:16:14;100151.38;;;17.18;85.25
55538;BME280;41383;51.418;7.286;2022-10-17T08:18:41;100145.47;;;17.25;85.51
55538;BME280;41383;51.418;7.286;2022-10-17T08:21:07;100139.59;;;17.32;85.02
55538;BME280;41383;51.418;7.286;2022-10-17T08:23:34;100144.94;;;17.42;84.16
55538;BME280;41383;51.418;7.286;2022-10-17T08:26:00;100150.06;;;17.49;83.65
55538;BME280;41383;51.418;7.286;2022-10-17T08:28:26;100158.22;;;17.54;82.88
55538;BME280;41383;51.418;7.286;2022-10-17T08:30:51;100148.44;;;17.62;83.01
55538;BME280;41383;51.418;7.286;2022-10-17T08:33:17;100156.00;;;17.56;83.24
55538;BME280;41383;51.418;7.286;2022-10-17T08:35:42;100159.66;;;17.66;82.69
55538;BME280;41383;51.418;7.286;2022-10-17T08:38:07;100168.47;;;17.68;83.04
55538;BME280;41383;51.418;7.286;2022-10-17T08:40:32;100168.91;;;17.75;82.44
55538;BME280;41383;51.418;7.286;2022-10-17T08:43:23;100160.53;;;17.80;82.52
55538;BME280;41383;51.418;7.286;2022-10-17T08:45:53;100166.25;;;17.84;82.95
55538;BME280;41383;51.418;7.286;2022-10-17T08:48:23;100179.53;;;17.96;81.71
55538;BME280;41383;51.418;7.286;2022-10-17T08:51:04;100167.38;;;17.97;81.65
55538;BME280;41383;51.418;7.286;2022-10-17T08:53:45;100185.47;;;18.03;81.55
55538;BME280;41383;51.418;7.286;2022-10-17T08:56:20;100185.88;;;18.11;80.88
55538;BME280;41383;51.418;7.286;2022-10-17T08:58:47;100194.47;;;18.09;81.01
55538;BME280;41383;51.418;7.286;2022-10-17T09:06:36;100188.91;;;18.28;80.15
55538;BME280;41383;51.418;7.286;2022-10-17T09:14:45;100202.16;;;18.54;80.44
55538;BME280;41383;51.418;7.286;2022-10-17T09:17:44;100202.19;;;18.40;80.12
55538;BME280;41383;51.418;7.286;2022-10-17T09:22:57;100203.72;;;18.47;80.05
55538;BME280;41383;51.418;7.286;2022-10-17T09:25:24;100213.22;;;18.54;79.63
55538;BME280;41383;51.418;7.286;2022-10-17T09:27:53;100211.25;;;18.69;79.32
55538;BME280;41383;51.418;7.286;2022-10-17T09:30:41;100215.84;;;18.60;79.36
55538;BME280;41383;51.418;7.286;2022-10-17T09:33:18;100220.34;;;18.55;80.23
55538;BME280;41383;51.418;7.286;2022-10-17T09:35:44;100215.97;;;18.54;80.08
55538;BME280;41383;51.418;7.286;2022-10-17T09:38:21;100216.16;;;18.58;79.96
55538;BME280;41383;51.418;7.286;2022-10-17T09:40:54;100225.34;;;18.53;80.04
55538;BME280;41383;51.418;7.286;2022-10-17T09:43:20;100236.41;;;18.53;79.66
55538;BME280;41383;51.418;7.286;2022-10-17T09:48:29;100249.69;;;18.51;80.17
55538;BME280;41383;51.418;7.286;2022-10-17T09:50:56;100254.63;;;18.54;80.33
55538;BME280;41383;51.418;7.286;2022-10-17T09:53:28;100245.38;;;18.59;80.17
55538;BME280;41383;51.418;7.286;2022-10-17T09:55:57;100250.13;;;18.59;79.75
55538;BME280;41383;51.418;7.286;2022-10-17T09:58:23;100261.75;;;18.55;79.60
55538;BME280;41383;51.418;7.286;2022-10-17T10:01:24;100258.91;;;18.61;79.47
55538;BME280;41383;51.418;7.286;2022-10-17T10:04:13;100260.84;;;18.60;79.79
55538;BME280;41383;51.418;7.286;2022-10-17T10:06:40;100257.47;;;18.63;79.70
55538;BME280;41383;51.418;7.286;2022-10-17T10:09:20;100278.53;;;18.59;79.28
55538;BME280;41383;51.418;7.286;2022-10-17T10:11:51;100273.63;;;18.56;80.02
55538;BME280;41383;51.418;7.286;2022-10-17T10:14:32;100272.81;;;18.55;79.25
55538;BME280;41383;51.418;7.286;2022-10-17T10:16:58;100270.66;;;18.52;79.45
55538;BME280;41383;51.418;7.286;2022-10-17T10:21:58;100288.44;;;18.46;80.45
55538;BME280;41383;51.418;7.286;2022-10-17T10:24:23;100293.97;;;18.46;79.45
55538;BME280;41383;51.418;7.286;2022-10-17T10:26:50;100289.06;;;18.43;79.70
55538;BME280;41383;51.418;7.286;2022-10-17T10:31:56;100304.19;;;18.46;80.36
55538;BME280;41383;51.418;7.286;2022-10-17T10:34:29;100309.50;;;18.42;80.57
55538;BME280;41383;51.418;7.286;2022-10-17T10:36:59;100305.72;;;18.38;80.68
55538;BME280;41383;51.418;7.286;2022-10-17T10:39:33;100307.97;;;18.36;81.35
55538;BME280;41383;51.418;7.286;2022-10-17T10:42:05;100314.69;;;18.29;81.10
55538;BME280;41383;51.418;7.286;2022-10-17T10:44:32;100317.66;;;18.33;80.95
55538;BME280;41383;51.418;7.286;2022-10-17T10:47:34;100312.97;;;18.34;80.89
55538;BME280;41383;51.418;7.286;2022-10-17T10:50:16;100323.09;;;18.38;80.80
55538;BME280;41383;51.418;7.286;2022-10-17T10:52:46;100318.63;;;18.42;80.97
55538;BME280;41383;51.418;7.286;2022-10-17T10:55:26;100324.41;;;18.41;81.33
55538;BME280;41383;51.418;7.286;2022-10-17T10:58:02;100325.03;;;18.38;81.57
55538;BME280;41383;51.418;7.286;2022-10-17T11:00:31;100327.69;;;18.43;81.37
55538;BME280;41383;51.418;7.286;2022-10-17T11:03:08;100328.72;;;18.47;81.21
55538;BME280;41383;51.418;7.286;2022-10-17T11:05:52;100342.44;;;18.52;81.49
55538;BME280;41383;51.418;7.286;2022-10-17T11:11:00;100357.66;;;18.50;81.03
55538;BME280;41383;51.418;7.286;2022-10-17T11:13:36;100361.25;;;18.50;80.72
55538;BME280;41383;51.418;7.286;2022-10-17T11:16:27;100368.13;;;18.53;80.36
55538;BME280;41383;51.418;7.286;2022-10-17T11:19:27;100365.34;;;18.53;80.19
55538;BME280;41383;51.418;7.286;2022-10-17T11:22:11;100372.19;;;18.55;80.73
55538;BME280;41383;51.418;7.286;2022-10-17T11:24:43;100378.53;;;18.56;80.79
55538;BME280;41383;51.418;7.286;2022-10-17T11:27:12;100386.00;;;18.55;80.79
55538;BME280;41383;51.418;7.286;2022-10-17T11:29:39;100385.47;;;18.53;81.02
55538;BME280;41383;51.418;7.286;2022-10-17T11:32:14;100381.00;;;18.72;80.32
55538;BME280;41383;51.418;7.286;2022-10-17T11:34:47;100384.25;;;18.60;80.76
55538;BME280;41383;51.418;7.286;2022-10-17T11:37:20;100377.91;;;18.59;80.68
55538;BME280;41383;51.418;7.286;2022-10-17T11:39:56;100367.69;;;18.60;80.87
55538;BME280;41383;51.418;7.286;2022-10-17T11:42:31;100369.56;;;18.64;80.71
55538;BME280;41383;51.418;7.286;2022-10-17T11:45:02;100373.22;;;18.74;80.39
55538;BME280;41383;51.418;7.286;2022-10-17T11:47:42;100372.81;;;18.66;80.86
55538;BME280;41383;51.418;7.286;2022-10-17T11:50:17;100363.63;;;18.71;80.93
55538;BME280;41383;51.418;7.286;2022-10-17T11:52:54;100349.91;;;18.66;80.08
55538;BME280;41383;51.418;7.286;2022-10-17T11:55:23;100348.28;;;18.65;80.45
55538;BME280;41383;51.418;7.286;2022-10-17T11:58:12;100349.41;;;18.64;80.37
55538;BME280;41383;51.418;7.286;2022-10-17T12:00:52;100352.69;;;18.66;80.73
55538;BME280;41383;51.418;7.286;2022-10-17T12:08:51;100364.63;;;18.75;80.47
55538;BME280;41383;51.418;7.286;2022-10-17T12:13:49;100365.88;;;18.69;80.80
55538;BME280;41383;51.418;7.286;2022-10-17T12:24:42;100370.28;;;18.70;80.68
55538;BME280;41383;51.418;7.286;2022-10-17T12:27:34;100373.66;;;18.67;81.25
55538;BME280;41383;51.418;7.286;2022-10-17T12:32:57;100377.13;;;18.73;81.39
55538;BME280;41383;51.418;7.286;2022-10-17T12:35:25;100376.50;;;18.76;81.36
55538;BME280;41383;51.418;7.286;2022-10-17T12:51:09;100388.25;;;18.67;83.09
55538;BME280;41383;51.418;7.286;2022-10-17T12:53:49;100383.03;;;18.66;82.68
55538;BME280;41383;51.418;7.286;2022-10-17T12:56:20;100391.94;;;18.63;82.66
55538;BME280;41383;51.418;7.286;2022-10-17T12:58:50;100385.09;;;18.60;82.68
55538;BME280;41383;51.418;7.286;2022-10-17T13:01:30;100387.44;;;18.53;83.16
55538;BME280;41383;51.418;7.286;2022-10-17T13:03:56;100387.66;;;18.57;83.27
55538;BME280;41383;51.418;7.286;2022-10-17T13:06:27;100388.84;;;18.50;83.83
55538;BME280;41383;51.418;7.286;2022-10-17T13:08:58;100401.53;;;18.51;84.29
55538;BME280;41383;51.418;7.286;2022-10-17T13:11:26;100402.44;;;18.47;84.32
55538;BME280;41383;51.418;7.286;2022-10-17T13:13:55;100409.91;;;18.46;84.30
55538;BME280;41383;51.418;7.286;2022-10-17T13:16:36;100411.94;;;18.40;84.84
55538;BME280;41383;51.418;7.286;2022-10-17T13:19:19;100422.22;;;18.35;84.89
55538;BME280;41383;51.418;7.286;2022-10-17T13:22:01;100425.50;;;18.37;85.81
55538;BME280;41383;51.418;7.286;2022-10-17T13:24:30;100427.75;;;18.35;86.25
55538;BME280;41383;51.418;7.286;2022-10-17T13:26:56;100438.19;;;18.38;85.97
55538;BME280;41383;51.418;7.286;2022-10-17T13:29:21;100429.09;;;18.37;85.98
55538;BME280;41383;51.418;7.286;2022-10-17T13:31:54;100433.09;;;18.45;86.01
55538;BME280;41383;51.418;7.286;2022-10-17T13:34:24;100436.31;;;18.52;86.04
55538;BME280;41383;51.418;7.286;2022-10-17T13:36:53;100433.34;;;18.49;86.33
55538;BME280;41383;51.418;7.286;2022-10-17T13:39:21;100451.94;;;18.57;85.72
55538;BME280;41383;51.418;7.286;2022-10-17T13:41:47;100449.13;;;18.43;86.69
55538;BME280;41383;51.418;7.286;2022-10-17T13:44:19;100444.75;;;18.42;86.37
55538;BME280;41383;51.418;7.286;2022-10-17T13:46:45;100463.13;;;18.33;87.42
55538;BME280;41383;51.418;7.286;2022-10-17T13:49:18;100474.97;;;18.33;87.92
55538;BME280;41383;51.418;7.286;2022-10-17T13:51:47;100469.84;;;18.26;87.73
55538;BME280;41383;51.418;7.286;2022-10-17T13:54:40;100469.91;;;18.21;88.18
55538;BME280;41383;51.418;7.286;2022-10-17T13:57:26;100474.91;;;18.19;88.37
55538;BME280;41383;51.418;7.286;2022-10-17T13:59:57;100472.78;;;18.11;89.17
55538;BME280;41383;51.418;7.286;2022-10-17T14:02:25;100470.34;;;18.09;89.21
55538;BME280;41383;51.418;7.286;2022-10-17T14:05:11;100467.53;;;18.14;88.82
55538;BME280;41383;51.418;7.286;2022-10-17T14:07:55;100473.63;;;18.11;89.18
55538;BME280;41383;51.418;7.286;2022-10-17T14:10:25;100482.19;;;18.09;89.64
55538;BME280;41383;51.418;7.286;2022-10-17T14:12:52;100476.69;;;18.09;89.79
55538;BME280;41383;51.418;7.286;2022-10-17T14:15:18;100474.50;;;18.06;89.77
55538;BME280;41383;51.418;7.286;2022-10-17T14:17:55;100485.03;;;18.04;90.01
55538;BME280;41383;51.418;7.286;2022-10-17T14:20:22;100473.97;;;18.04;90.26
55538;BME280;41383;51.418;7.286;2022-10-17T14:22:47;100478.41;;;18.05;89.92
55538;BME280;41383;51.418;7.286;2022-10-17T14:30:40;100473.09;;;18.09;89.78